AirNav   Phillips 66 Aviation Fuel
 
 284 users online  

AL43 Henley Ranch Airport
Geiger, Alabama, USA

GOING TO GEIGER?


FAA INFORMATION EFFECTIVE 12 SEPTEMBER 2019

Location

FAA Identifier: AL43
Lat/Long: 32-54-30.4650N 088-20-00.1200W
32-54.507750N 088-20.002000W
32.9084625,-88.3333667
(estimated)
Elevation: 200 ft. / 61 m (estimated)
Variation: 01E (1985)
From city: 4 miles NW of GEIGER, AL
Time zone: UTC -5 (UTC -6 during Standard Time)
Zip code: 35459

Airport Operations

Airport use: Private use. Permission required prior to landing
Activation date: 06/1983
Control tower: no
ARTCC: MEMPHIS CENTER
FSS: ANNISTON FLIGHT SERVICE STATION
Attendance: UNATNDD
Wind indicator: yes
Segmented circle: yes

Nearby radio navigation aids

VOR radial/distance  VOR name  Freq  Var
EWAr007/33.1KEWANEE VORTAC113.8004E
IGBr161/35.8BIGBEE VORTAC116.2004E
MEIr032/39.7MERIDIAN VORTAC117.0005E

Airport Services

Runway Information

Runway 10/28

Dimensions: 3000 x 50 ft. / 914 x 15 m
Surface: turf
RUNWAY 10  RUNWAY 28
Traffic pattern: leftleft

Airport Ownership and Management from official FAA records

Ownership: Privately-owned
Owner: MARK HENLEY
576 HENLEY DR.
EMELLE, AL 35459
Phone 205-601-9215
Manager: ALAN HENLEY
576 HENLEY DR
EMELLE, AL 35459
Phone 205-455-2405

Airport Operational Statistics

Aircraft based on the field: 9
Single engine airplanes: 7
Multi engine airplanes: 1
Helicopters: 1
    

Additional Remarks

CARETAKER - LOUIS WATT 205-601-9215.
FOR CD CTC MEMPHIS ARTCC AT 901-368-8453.

Instrument Procedures

There are no published instrument procedures at AL43.

Some nearby airports with instrument procedures:

KAIV - George Downer Airport (14 nm NE)
KNMM - Meridian Naval Air Station (Mc Cain Field) (24 nm SW)
KNJW - Joe Williams Naval Outlying Field (26 nm W)
KDYA - Demopolis Regional Airport (33 nm SE)
3M8 - North Pickens Airport (33 nm NE)
 
Loc | Ops | Rwys | IFR | FBO | Links
Com | Nav | Svcs | Stats | Notes
Area around AL43 (Henley Ranch Airport)
 
Road maps at: MapQuest Bing Google
 
Aerial photo
No photo
 
Sectional chart

 
Airport distance calculator
Flying to Henley Ranch Airport? Find the distance to fly.

From to AL43

Sunrise and sunset
Times for 24-Sep-2019
 Local
(UTC-5)
 Zulu
(UTC)
Morning civil twilight06:1911:19
Sunrise06:4411:44
Sunset18:4723:47
Evening civil twilight19:1200:12

Current date and time
Zulu (UTC)  24-Sep-2019 09:03:49
Local (UTC-5)  24-Sep-2019 04:03:49
 
METAR
KNMM 
25nm SW 
240856Z AUTO 00000KT 10SM FEW100 22/21 A2998 RMK AO2 SLP158 T02170206 55005
KDYA 
33nm SE 
240855Z AUTO 00000KT 10SM CLR 20/19 A2997 RMK AO2 T02030193
KGTR 
35nm N 
240856Z AUTO 00000KT 10SM CLR 23/22 A2998 RMK AO2 SLP158 T02280222 55004
KMEI 
40nm SW 
240858Z AUTO 19005KT 10SM CLR 22/20 A2998 RMK AO2 SLP148 T02170200 55004
KTCL 
41nm NE 
240853Z AUTO 00000KT 9SM CLR 23/21 A2996 RMK AO2 SLP143 T02280211 56006
KSTF 
41nm NW 
240855Z AUTO 00000KT OVC110 21/21 A2999 RMK AO2 PWINO
KCBM 
44nm N 
240856Z AUTO 00000KT 10SM CLR 22/22 A2997 RMK AO2 SLP150 T02240217 56004 $
TAF
KNMM 
25nm SW 
2407/2507 VRB04KT 9999 FEW060 SCT090 QNH2993INS FM241300 VRB04KT 9999 BKN015 OVC035 QNH2990INS FM241700 31006KT 9999 VCSH SCT025 BKN040 BKN080 QNH2984INS TEMPO 2418/2423 34008KT 8000 SHRA SCT020 BKN040 OVC080 FM250000 VRB05KT 9999 FEW035 FEW100 QNH2983INS AUTOMATED SENSOR METWATCH 2407 TIL 2412 T21/2412Z T31/2419Z FN00216
NOTAMs
Click for the latest NOTAMs
NOTAMs are issued by the DoD/FAA and will open in a separate window not controlled by AirNav.

 

 
 

Would you like to see your business listed on this page?

 If your business provides an interesting product or service to pilots, flight crews, aircraft, or users of the Henley Ranch Airport, you should consider listing it here.  To start the listing process, click on the button below
 
Add a business
 

Other Pages about Henley Ranch Airport

Update a link
 
Copyright © AirNav, LLC. All rights reserved. Privacy Policy  Contact